Time;durP1;ratioP1;P1;durP2;ratioP2;P2;SDS_P1;SDS_P2;PMS_P1;PMS_P2;Temp;Humidity;BMP_temperature;BMP_pressure;BME280_temperature;BME280_humidity;BME280_pressure;Samples;Min_cycle;Max_cycle;Signal;HPM_P1;HPM_P2
2022/12/18 00:01:13;;;;;;;40.20;15.27;;;-2.40;99.90;;;;;;5030633;28;20041;-68
2022/12/18 00:03:38;;;;;;;54.38;15.82;;;-2.40;99.90;;;;;;5049060;28;20494;-68
2022/12/18 00:06:04;;;;;;;43.87;15.33;;;-2.40;99.90;;;;;;5048968;28;20070;-68
2022/12/18 00:08:30;;;;;;;45.90;16.57;;;-2.40;99.90;;;;;;5047316;28;20045;-68
2022/12/18 00:11:02;;;;;;;48.00;17.17;;;-2.40;99.90;;;;;;5046425;28;20037;-68
2022/12/18 00:13:28;;;;;;;47.05;16.30;;;-2.40;99.90;;;;;;5028506;28;20045;-68
2022/12/18 00:15:54;;;;;;;50.00;15.67;;;-2.40;99.90;;;;;;5047546;28;20477;-69
2022/12/18 00:18:19;;;;;;;50.67;15.73;;;-2.50;99.90;;;;;;5047567;28;20071;-69
2022/12/18 00:20:45;;;;;;;47.87;17.23;;;-2.40;99.90;;;;;;5028734;28;20434;-69
2022/12/18 00:23:11;;;;;;;45.40;15.07;;;-2.50;99.90;;;;;;5047688;28;20533;-69
2022/12/18 00:25:37;;;;;;;52.77;18.93;;;-2.60;99.90;;;;;;5048358;28;20186;-69
2022/12/18 00:28:03;;;;;;;41.05;17.02;;;-2.50;99.90;;;;;;5048459;28;20052;-68
2022/12/18 00:30:29;;;;;;;44.47;15.75;;;-2.60;99.90;;;;;;5046836;28;20256;-69
2022/12/18 00:32:55;;;;;;;46.13;15.63;;;-2.60;99.90;;;;;;5047013;28;20403;-69
2022/12/18 00:35:21;;;;;;;47.13;17.67;;;-2.60;99.90;;;;;;5037885;28;20037;-69
2022/12/18 00:37:47;;;;;;;49.53;16.77;;;-2.60;99.90;;;;;;5037100;28;20289;-69
2022/12/18 00:40:12;;;;;;;51.30;18.13;;;-2.70;99.90;;;;;;5038505;28;20049;-69
2022/12/18 00:42:56;;;;;;;45.90;16.40;;;-2.70;99.90;;;;;;5047457;28;20090;-68
2022/12/18 00:45:27;;;;;;;39.65;13.57;;;-2.70;99.90;;;;;;5046942;28;20041;-69
2022/12/18 00:47:54;;;;;;;50.22;17.48;;;-2.70;99.90;;;;;;5047214;28;20049;-68
2022/12/18 00:50:19;;;;;;;45.65;15.90;;;-2.70;99.90;;;;;;5029015;28;20037;-68
2022/12/18 00:52:45;;;;;;;41.33;15.03;;;-2.80;99.90;;;;;;5047645;28;20044;-68
2022/12/18 00:55:11;;;;;;;45.80;16.30;;;-2.80;99.90;;;;;;5046971;28;20084;-68
2022/12/18 00:57:37;;;;;;;43.25;15.43;;;-2.80;99.90;;;;;;5028846;28;20045;-68
2022/12/18 01:00:05;;;;;;;54.65;17.60;;;-2.80;99.90;;;;;;5046157;28;20044;-68
2022/12/18 01:02:31;;;;;;;45.85;15.95;;;-2.80;99.90;;;;;;5031550;28;20049;-68
2022/12/18 01:04:56;;;;;;;40.50;15.00;;;-2.80;99.90;;;;;;5027220;28;20047;-69
2022/12/18 01:07:25;;;;;;;43.37;15.90;;;-2.90;99.90;;;;;;5044737;28;20310;-68
2022/12/18 01:09:51;;;;;;;51.75;15.55;;;-2.90;99.90;;;;;;5038249;28;20483;-66
2022/12/18 01:12:16;;;;;;;56.73;16.87;;;-2.90;99.90;;;;;;5022722;28;20110;-68
2022/12/18 01:14:42;;;;;;;52.80;16.33;;;-2.90;99.90;;;;;;5007428;28;20044;-68
2022/12/18 01:17:08;;;;;;;44.50;14.50;;;-2.90;99.90;;;;;;5040767;28;20339;-68
2022/12/18 01:19:33;;;;;;;38.60;14.90;;;-2.90;99.90;;;;;;5041201;28;20049;-67
2022/12/18 01:21:59;;;;;;;44.83;15.33;;;-2.90;99.90;;;;;;5024540;28;20041;-68
2022/12/18 01:24:25;;;;;;;46.77;16.87;;;-3.00;99.90;;;;;;5026311;28;20310;-68
2022/12/18 01:26:51;;;;;;;50.50;15.00;;;-3.00;99.90;;;;;;5026602;28;20043;-68
2022/12/18 01:29:19;;;;;;;40.50;13.77;;;-3.00;99.90;;;;;;5024519;28;20057;-68
2022/12/18 01:31:45;;;;;;;48.60;15.20;;;-3.00;99.90;;;;;;5041822;28;20075;-68
2022/12/18 01:34:10;;;;;;;40.20;13.63;;;-3.00;99.90;;;;;;5024764;28;20044;-68
2022/12/18 01:36:38;;;;;;;50.13;16.33;;;-3.10;99.90;;;;;;5042104;28;20929;-71
2022/12/18 01:39:07;;;;;;;37.17;11.90;;;-3.10;99.90;;;;;;5021830;28;20051;-68
2022/12/18 01:42:18;;;;;;;50.03;14.60;;;-3.10;99.90;;;;;;5039974;28;20103;-68
2022/12/18 01:45:05;;;;;;;32.65;12.63;;;-3.20;99.90;;;;;;5009614;28;20045;-68
2022/12/18 01:47:42;;;;;;;45.33;14.90;;;-3.20;99.90;;;;;;5005849;28;20080;-68
2022/12/18 01:50:35;;;;;;;46.42;14.88;;;-3.20;99.90;;;;;;5043160;28;20053;-67
2022/12/18 01:53:09;;;;;;;33.97;13.73;;;-3.20;99.90;;;;;;5019822;28;20429;-68
2022/12/18 01:55:44;;;;;;;46.00;14.07;;;-3.30;99.90;;;;;;5021640;28;20108;-68
2022/12/18 01:58:10;;;;;;;38.83;14.73;;;-3.30;99.90;;;;;;5042303;28;20116;-68
2022/12/18 02:00:36;;;;;;;40.20;13.13;;;-3.30;99.90;;;;;;5030713;28;20475;-68
2022/12/18 02:03:04;;;;;;;43.87;14.97;;;-3.30;99.90;;;;;;5029033;28;20045;-68
2022/12/18 02:05:56;;;;;;;35.40;13.07;;;-3.30;99.90;;;;;;5024438;28;20106;-68
2022/12/18 02:08:24;;;;;;;41.33;13.73;;;-3.40;99.90;;;;;;5022172;28;20091;-68
2022/12/18 02:10:53;;;;;;;44.58;15.38;;;-3.40;99.90;;;;;;5024716;28;20075;-67
2022/12/18 02:13:45;;;;;;;44.10;13.23;;;-3.40;99.90;;;;;;5027600;28;20745;-67
2022/12/18 02:16:31;;;;;;;40.33;12.02;;;-3.40;99.90;;;;;;5025162;28;20490;-69
2022/12/18 02:19:00;;;;;;;36.65;13.73;;;-3.50;99.90;;;;;;5022684;28;20411;-72
2022/12/18 02:21:38;;;;;;;40.65;13.80;;;-3.50;99.90;;;;;;5044545;28;20068;-68
2022/12/18 02:24:09;;;;;;;37.22;12.75;;;-3.50;99.90;;;;;;5031705;28;20052;-68
2022/12/18 02:26:49;;;;;;;41.63;13.88;;;-3.50;99.90;;;;;;5018915;28;20037;-68
2022/12/18 02:29:21;;;;;;;33.63;13.32;;;-3.60;99.90;;;;;;5022424;28;20137;-67
2022/12/18 02:31:53;;;;;;;39.30;13.30;;;-3.60;99.90;;;;;;5021894;28;20710;-68
2022/12/18 02:34:23;;;;;;;39.47;14.10;;;-3.60;99.90;;;;;;5030543;28;20048;-68
2022/12/18 02:36:50;;;;;;;48.05;14.95;;;-3.60;99.90;;;;;;5052289;28;20419;-68
2022/12/18 02:39:21;;;;;;;43.15;16.00;;;-3.60;99.90;;;;;;5033857;28;20407;-68
2022/12/18 02:41:48;;;;;;;42.20;14.48;;;-3.70;99.90;;;;;;5033926;28;20040;-68
2022/12/18 02:44:14;;;;;;;47.20;15.23;;;-3.70;99.90;;;;;;5049734;28;20632;-68
2022/12/18 02:46:43;;;;;;;38.40;15.15;;;-3.80;99.90;;;;;;5050203;28;20044;-68
2022/12/18 02:50:03;;;;;;;47.50;15.80;;;-3.80;99.90;;;;;;5031888;28;20043;-68
2022/12/18 02:52:29;;;;;;;41.15;13.93;;;-3.80;99.90;;;;;;4950366;29;20059;-68
2022/12/18 02:55:00;;;;;;;45.17;13.30;;;-3.80;99.90;;;;;;5015257;28;20107;-68
2022/12/18 02:57:39;;;;;;;37.38;13.30;;;-3.80;99.90;;;;;;5013966;28;20122;-68
2022/12/18 03:00:43;;;;;;;43.13;14.32;;;-3.70;99.90;;;;;;5013882;28;20045;-70
2022/12/18 03:03:24;;;;;;;47.75;14.25;;;-3.90;99.90;;;;;;5031755;28;20091;-68
2022/12/18 03:06:10;;;;;;;42.15;15.13;;;-3.80;99.90;;;;;;5031277;28;20383;-68
2022/12/18 03:08:48;;;;;;;45.08;14.35;;;-3.90;99.90;;;;;;5031661;28;20045;-68
2022/12/18 03:11:14;;;;;;;44.60;14.43;;;-3.90;99.90;;;;;;5032352;28;20482;-68
2022/12/18 03:13:53;;;;;;;41.17;14.82;;;-3.90;99.90;;;;;;5013957;28;20037;-68
2022/12/18 03:16:26;;;;;;;40.50;13.68;;;-3.90;99.90;;;;;;5028640;28;20071;-69
2022/12/18 03:19:06;;;;;;;42.83;15.07;;;-3.90;99.90;;;;;;5051786;28;20437;-68
2022/12/18 03:21:45;;;;;;;43.97;15.45;;;-3.90;99.90;;;;;;5051641;28;20384;-68
2022/12/18 03:24:11;;;;;;;40.15;12.90;;;-4.00;99.90;;;;;;5036713;28;20041;-68
2022/12/18 03:26:40;;;;;;;43.95;14.77;;;-4.00;99.90;;;;;;5050165;28;20041;-68
2022/12/18 03:29:17;;;;;;;46.42;14.57;;;-4.00;99.90;;;;;;5050270;28;20056;-68
2022/12/18 03:31:49;;;;;;;47.13;14.52;;;-4.00;99.90;;;;;;5051770;28;20095;-68
2022/12/18 03:34:21;;;;;;;40.38;13.90;;;-4.10;99.90;;;;;;5051259;28;20044;-68
2022/12/18 03:36:47;;;;;;;43.22;15.32;;;-4.10;99.90;;;;;;5049985;28;20049;-68
2022/12/18 03:39:14;;;;;;;51.63;16.63;;;-4.10;99.90;;;;;;5034049;28;20055;-68
2022/12/18 03:41:43;;;;;;;;;;;-4.10;99.90;;;;;;5031040;28;20033;-68
2022/12/18 03:44:12;;;;;;;41.55;14.18;;;-4.10;99.90;;;;;;5034284;28;19924;-67
2022/12/18 03:47:12;;;;;;;48.38;14.18;;;-4.10;99.90;;;;;;5046888;28;20107;-68
2022/12/18 03:49:43;;;;;;;42.40;13.32;;;-4.10;99.90;;;;;;5029988;28;20049;-69
2022/12/18 03:52:13;;;;;;;40.47;14.10;;;-4.20;99.90;;;;;;5029021;28;20091;-69
2022/12/18 03:54:41;;;;;;;42.08;15.90;;;-4.20;99.90;;;;;;5047036;28;20037;-69
2022/12/18 03:57:18;;;;;;;44.22;14.88;;;-4.20;99.90;;;;;;5037423;28;20041;-68
2022/12/18 03:59:47;;;;;;;38.00;14.77;;;-4.20;99.90;;;;;;5046145;28;20044;-69
2022/12/18 04:02:15;;;;;;;47.58;16.02;;;-4.20;99.90;;;;;;5043355;28;20465;-69
2022/12/18 04:04:42;;;;;;;45.70;14.93;;;-4.20;99.90;;;;;;5027752;28;20278;-69
2022/12/18 04:07:09;;;;;;;43.08;15.60;;;-4.20;99.90;;;;;;5047571;28;20124;-69
2022/12/18 04:09:36;;;;;;;50.70;16.70;;;-4.30;99.90;;;;;;5039078;28;20033;-68
2022/12/18 04:12:05;;;;;;;49.60;15.50;;;-4.30;99.90;;;;;;5028552;28;20045;-68
2022/12/18 04:14:35;;;;;;;46.85;14.98;;;-4.30;99.90;;;;;;5043140;28;20033;-68
2022/12/18 04:17:02;;;;;;;43.10;14.40;;;-4.30;99.90;;;;;;5027625;28;20037;-68
2022/12/18 04:19:30;;;;;;;41.35;15.10;;;-4.30;99.90;;;;;;5003449;28;20567;-68
2022/12/18 04:21:56;;;;;;;42.27;14.17;;;-4.30;99.90;;;;;;5020390;28;20132;-68
2022/12/18 04:24:24;;;;;;;44.00;14.93;;;-4.30;99.90;;;;;;5027051;28;20491;-68
2022/12/18 04:26:50;;;;;;;36.42;13.23;;;-4.30;99.90;;;;;;5028996;28;20041;-69
2022/12/18 04:29:16;;;;;;;45.03;14.07;;;-4.40;99.90;;;;;;5034096;28;20367;-69
2022/12/18 04:31:41;;;;;;;48.08;16.20;;;-4.40;99.90;;;;;;5029581;28;20037;-69
2022/12/18 04:34:07;;;;;;;43.40;14.67;;;-4.40;99.90;;;;;;5031656;28;20094;-69
2022/12/18 04:36:33;;;;;;;41.63;13.43;;;-4.40;99.90;;;;;;5028352;28;20037;-69
2022/12/18 04:38:59;;;;;;;50.23;16.63;;;-4.40;99.90;;;;;;5045579;28;20045;-69
2022/12/18 04:41:24;;;;;;;47.50;16.27;;;-4.40;99.90;;;;;;5049848;28;20124;-69
2022/12/18 04:43:50;;;;;;;50.07;15.37;;;-4.40;99.90;;;;;;5046219;28;20036;-69
2022/12/18 04:46:16;;;;;;;55.50;16.20;;;-4.40;99.90;;;;;;5012830;28;20045;-69
2022/12/18 04:48:41;;;;;;;38.95;15.05;;;-4.50;99.90;;;;;;5028618;28;20045;-69
2022/12/18 04:51:07;;;;;;;51.97;16.60;;;-4.50;99.90;;;;;;5023963;28;20046;-69
2022/12/18 04:53:33;;;;;;;45.27;14.07;;;-4.50;99.90;;;;;;5045810;28;20137;-69
2022/12/18 04:56:10;;;;;;;39.13;13.25;;;-4.50;99.90;;;;;;5042381;28;20056;-69
2022/12/18 04:58:37;;;;;;;;;;;-4.50;99.90;;;;;;5030857;28;20063;-69
2022/12/18 05:01:07;;;;;;;37.22;12.80;;;-4.50;99.90;;;;;;5042430;28;19920;-68
2022/12/18 05:03:33;;;;;;;38.40;14.15;;;-4.50;99.90;;;;;;5044908;28;20606;-68
2022/12/18 05:05:59;;;;;;;40.17;13.85;;;-4.50;99.90;;;;;;5039645;28;20059;-68
2022/12/18 05:08:25;;;;;;;45.92;14.48;;;-4.50;99.90;;;;;;5027348;28;20102;-68
2022/12/18 05:11:03;;;;;;;40.08;13.15;;;-4.60;99.90;;;;;;5054181;22;20049;-68
2022/12/18 05:13:29;;;;;;;49.72;13.00;;;-4.60;99.90;;;;;;5035991;28;20080;-68
2022/12/18 05:15:55;;;;;;;40.65;11.93;;;-4.60;99.90;;;;;;5038319;28;20068;-68
2022/12/18 05:18:22;;;;;;;39.72;12.45;;;-4.60;99.90;;;;;;5046247;28;20105;-68
2022/12/18 05:20:49;;;;;;;36.85;13.45;;;-4.60;99.90;;;;;;5042288;28;20154;-68
2022/12/18 05:23:15;;;;;;;38.88;13.13;;;-4.70;99.90;;;;;;5042344;28;20036;-68
2022/12/18 05:25:41;;;;;;;31.20;11.43;;;-4.70;99.90;;;;;;5043251;28;20040;-68
2022/12/18 05:28:07;;;;;;;42.63;13.33;;;-4.70;99.90;;;;;;5026931;28;20395;-68
2022/12/18 05:30:32;;;;;;;33.57;12.13;;;-4.70;99.90;;;;;;5040055;28;20079;-68
2022/12/18 05:32:58;;;;;;;47.03;13.43;;;-4.70;99.90;;;;;;5037252;28;20099;-68
2022/12/18 05:35:23;;;;;;;35.97;12.40;;;-4.70;99.90;;;;;;5043646;28;20096;-68
2022/12/18 05:37:49;;;;;;;30.57;11.13;;;-4.70;99.90;;;;;;5040925;28;20095;-67
2022/12/18 05:40:15;;;;;;;32.00;12.37;;;-4.80;99.90;;;;;;5042006;28;20045;-68
2022/12/18 05:42:40;;;;;;;35.90;12.93;;;-4.70;99.90;;;;;;5044242;28;20119;-67
2022/12/18 05:45:06;;;;;;;42.50;12.90;;;-4.70;99.90;;;;;;5039275;28;20525;-68
2022/12/18 05:47:32;;;;;;;32.83;12.25;;;-4.70;99.90;;;;;;5043568;28;20326;-68
2022/12/18 05:49:58;;;;;;;31.50;11.77;;;-4.70;99.90;;;;;;5044131;28;20382;-69
2022/12/18 05:52:23;;;;;;;33.70;10.73;;;-4.80;99.90;;;;;;5041067;28;20045;-68
2022/12/18 05:54:49;;;;;;;32.43;12.07;;;-4.80;99.90;;;;;;5038611;28;20526;-68
2022/12/18 05:57:15;;;;;;;21.80;10.77;;;-4.80;99.90;;;;;;5046010;28;20156;-68
2022/12/18 05:59:40;;;;;;;32.70;11.07;;;-4.80;99.90;;;;;;5042577;28;20124;-68
2022/12/18 06:02:06;;;;;;;36.13;10.87;;;-4.90;99.90;;;;;;5041458;28;20075;-68
2022/12/18 06:04:31;;;;;;;36.50;12.67;;;-4.90;99.90;;;;;;5037782;28;20135;-68
2022/12/18 06:06:57;;;;;;;36.10;11.13;;;-4.90;99.90;;;;;;5042413;28;20037;-67
2022/12/18 06:09:23;;;;;;;35.20;11.53;;;-4.90;99.90;;;;;;5045197;28;20064;-68
2022/12/18 06:11:50;;;;;;;24.37;9.73;;;-4.90;99.90;;;;;;5044997;28;20421;-68
2022/12/18 06:14:17;;;;;;;33.08;11.23;;;-4.90;99.90;;;;;;5044930;28;20042;-68
2022/12/18 06:16:43;;;;;;;33.83;10.95;;;-4.90;99.90;;;;;;5044966;28;20036;-68
2022/12/18 06:19:15;;;;;;;32.80;10.75;;;-4.90;99.90;;;;;;5029396;28;20045;-68
2022/12/18 06:21:41;;;;;;;30.85;12.32;;;-5.00;99.90;;;;;;5043802;28;20064;-68
2022/12/18 06:24:06;;;;;;;28.83;11.32;;;-4.90;99.90;;;;;;5045171;28;20097;-68
2022/12/18 06:26:32;;;;;;;26.70;9.23;;;-5.00;99.90;;;;;;5045800;28;20053;-68
2022/12/18 06:28:58;;;;;;;31.47;12.63;;;-5.00;99.90;;;;;;5047969;28;20473;-68
2022/12/18 06:31:24;;;;;;;26.60;9.63;;;-5.00;99.90;;;;;;5044945;28;20515;-68
2022/12/18 06:33:50;;;;;;;29.33;10.63;;;-5.00;99.90;;;;;;5049063;28;20095;-68
2022/12/18 06:36:16;;;;;;;31.47;9.90;;;-5.00;99.90;;;;;;5044560;28;20068;-68
2022/12/18 06:38:43;;;;;;;30.98;11.20;;;-5.00;99.90;;;;;;5043578;28;20037;-69
2022/12/18 06:41:11;;;;;;;29.73;10.90;;;-5.00;99.90;;;;;;5045408;28;20051;-68
2022/12/18 06:43:37;;;;;;;28.02;10.57;;;-5.00;99.90;;;;;;5045165;28;20056;-69
2022/12/18 06:46:04;;;;;;;30.23;10.77;;;-5.00;99.90;;;;;;5042882;28;20049;-68
2022/12/18 06:48:30;;;;;;;34.33;11.93;;;-5.10;99.90;;;;;;5042947;28;20049;-68
2022/12/18 06:50:56;;;;;;;30.33;10.27;;;-5.10;99.90;;;;;;5040062;28;20040;-68
2022/12/18 06:53:22;;;;;;;27.95;10.68;;;-5.10;99.90;;;;;;5047317;28;20282;-68
2022/12/18 06:55:47;;;;;;;23.77;10.52;;;-5.10;99.90;;;;;;5039622;28;20130;-68
2022/12/18 06:58:13;;;;;;;29.77;10.77;;;-5.10;99.90;;;;;;5046710;28;20154;-68
2022/12/18 07:00:39;;;;;;;33.57;10.93;;;-5.10;99.90;;;;;;5045238;28;20041;-68
2022/12/18 07:03:04;;;;;;;28.87;10.77;;;-5.10;99.90;;;;;;5046454;28;20072;-68
2022/12/18 07:05:30;;;;;;;25.63;9.10;;;-5.10;99.90;;;;;;5042063;28;20041;-68
2022/12/18 07:07:56;;;;;;;22.17;8.93;;;-5.10;99.90;;;;;;5046794;28;20040;-68
2022/12/18 07:10:21;;;;;;;31.77;9.77;;;-5.20;99.90;;;;;;5046947;28;20500;-67
2022/12/18 07:12:47;;;;;;;27.07;10.57;;;-5.10;99.90;;;;;;5040999;28;20117;-67
2022/12/18 07:15:13;;;;;;;25.58;9.35;;;-5.10;99.90;;;;;;5042984;28;20223;-68
2022/12/18 07:17:39;;;;;;;27.47;10.23;;;-5.10;99.90;;;;;;5046486;28;20029;-67
2022/12/18 07:20:05;;;;;;;22.57;9.97;;;-5.10;99.90;;;;;;5042883;28;20080;-67
2022/12/18 07:22:30;;;;;;;27.05;9.73;;;-5.10;99.90;;;;;;5044822;28;20076;-67
2022/12/18 07:24:56;;;;;;;24.90;8.77;;;-5.20;99.90;;;;;;5043781;28;20513;-68
2022/12/18 07:27:22;;;;;;;23.87;8.77;;;-5.20;99.90;;;;;;5043075;28;20041;-68
2022/12/18 07:29:48;;;;;;;;;;;-5.10;99.90;;;;;;5048991;28;20147;-68
2022/12/18 07:32:14;;;;;;;25.25;9.88;;;-5.10;99.90;;;;;;5043694;28;20417;-68
2022/12/18 07:34:40;;;;;;;23.92;9.85;;;-5.10;99.90;;;;;;5043514;28;20048;-68
2022/12/18 07:37:05;;;;;;;23.30;8.50;;;-5.10;99.90;;;;;;5045280;28;20384;-68
2022/12/18 07:39:31;;;;;;;27.20;9.90;;;-5.10;99.90;;;;;;5045328;28;20470;-68
2022/12/18 07:42:57;;;;;;;22.60;9.03;;;-5.10;99.90;;;;;;5044372;28;20076;-68
2022/12/18 07:44:51;;;;;;;20.92;7.50;;;-5.10;99.90;;;;;;5030984;28;20045;-68
2022/12/18 07:47:17;;;;;;;25.07;9.07;;;-5.10;99.90;;;;;;5046532;28;20056;-68
2022/12/18 07:49:42;;;;;;;27.07;9.07;;;-5.10;99.90;;;;;;5044347;28;20040;-68
2022/12/18 07:52:09;;;;;;;23.27;8.93;;;-5.10;99.90;;;;;;5045614;28;20341;-68
2022/12/18 07:54:34;;;;;;;23.10;8.95;;;-5.00;99.90;;;;;;5041770;28;20132;-68
2022/12/18 07:57:00;;;;;;;24.27;8.33;;;-5.00;99.90;;;;;;5038822;28;20131;-68
2022/12/18 07:59:26;;;;;;;22.90;8.67;;;-5.00;99.90;;;;;;5045408;28;20045;-68
2022/12/18 08:01:52;;;;;;;23.80;9.82;;;-5.00;99.90;;;;;;5038126;28;20380;-68
2022/12/18 08:04:17;;;;;;;23.63;8.80;;;-5.00;99.90;;;;;;5041579;28;20045;-68
2022/12/18 08:06:43;;;;;;;24.40;8.43;;;-4.90;99.90;;;;;;5042159;28;20045;-68
2022/12/18 08:09:10;;;;;;;22.03;7.70;;;-4.90;99.90;;;;;;5042956;28;20048;-68
2022/12/18 08:11:35;;;;;;;25.48;9.77;;;-4.80;99.90;;;;;;5043272;28;20037;-68
2022/12/18 08:14:01;;;;;;;25.00;9.70;;;-4.80;99.90;;;;;;5041842;28;20052;-68
2022/12/18 08:16:27;;;;;;;19.50;7.93;;;-4.80;99.90;;;;;;5039949;28;20174;-68
2022/12/18 08:18:53;;;;;;;28.77;9.17;;;-4.70;99.90;;;;;;5047558;28;20060;-68
2022/12/18 08:21:22;;;;;;;23.40;9.10;;;-4.70;99.90;;;;;;5045966;28;20059;-68
2022/12/18 08:23:52;;;;;;;24.33;9.05;;;-4.70;99.90;;;;;;5042193;28;20683;-68
2022/12/18 08:26:18;;;;;;;23.58;9.00;;;-4.60;99.90;;;;;;5040850;28;20055;-68
2022/12/18 08:28:44;;;;;;;26.45;9.35;;;-4.60;99.90;;;;;;5042951;28;20056;-68
2022/12/18 08:31:10;;;;;;;27.87;10.37;;;-4.60;99.90;;;;;;5040242;28;20045;-68
2022/12/18 08:33:37;;;;;;;22.25;9.27;;;-4.50;99.90;;;;;;5041809;28;20088;-68
2022/12/18 08:36:03;;;;;;;23.83;8.48;;;-4.50;99.90;;;;;;5042657;28;20045;-68
2022/12/18 08:38:29;;;;;;;22.23;9.75;;;-4.40;99.90;;;;;;5039855;28;20585;-68
2022/12/18 08:41:08;;;;;;;24.60;9.40;;;-4.40;99.90;;;;;;5042199;28;20061;-68
2022/12/18 08:46:19;;;;;;;20.92;8.75;;;-4.30;99.90;;;;;;5042775;28;20075;-68
2022/12/18 08:48:45;;;;;;;20.67;8.65;;;-4.30;99.90;;;;;;5019609;28;20430;-68
2022/12/18 08:51:11;;;;;;;18.30;8.45;;;-4.20;99.90;;;;;;5043881;28;20047;-68
2022/12/18 08:53:37;;;;;;;19.00;7.93;;;-4.20;99.90;;;;;;5040092;28;20433;-68
2022/12/18 08:56:03;;;;;;;18.92;8.45;;;-4.20;99.90;;;;;;5041006;28;20048;-68
2022/12/18 08:58:30;;;;;;;25.30;7.70;;;-4.10;99.90;;;;;;5043056;28;20414;-69
2022/12/18 09:01:01;;;;;;;18.27;7.65;;;-4.00;99.90;;;;;;5043646;28;20087;-68
2022/12/18 09:03:27;;;;;;;19.38;8.05;;;-4.00;99.90;;;;;;5041865;28;20501;-68
2022/12/18 09:05:53;;;;;;;27.13;8.87;;;-3.90;99.90;;;;;;5034249;28;20367;-68
2022/12/18 09:08:18;;;;;;;24.97;7.90;;;-3.90;99.90;;;;;;5043430;28;20516;-68
2022/12/18 09:10:45;;;;;;;19.93;7.77;;;-3.80;99.90;;;;;;5036966;28;20112;-68
2022/12/18 09:13:12;;;;;;;21.58;8.32;;;-3.80;99.90;;;;;;5044759;28;20138;-68
2022/12/18 09:15:47;;;;;;;;;;;-3.70;99.90;;;;;;5042192;28;20064;-68
2022/12/18 09:18:14;;;;;;;17.00;7.72;;;-3.60;99.90;;;;;;5036148;28;19986;-68
2022/12/18 09:20:40;;;;;;;19.98;7.70;;;-3.60;99.90;;;;;;5049901;28;20414;-70
2022/12/18 09:23:06;;;;;;;20.67;7.33;;;-3.50;99.90;;;;;;5023027;28;20187;-68
2022/12/18 09:25:35;;;;;;;17.17;7.15;;;-3.40;99.90;;;;;;5034088;28;20102;-68
2022/12/18 09:28:09;;;;;;;17.35;8.02;;;-3.30;99.90;;;;;;5039090;28;20529;-69
2022/12/18 09:30:39;;;;;;;20.65;8.77;;;-3.20;99.90;;;;;;5035795;28;20120;-69
2022/12/18 09:33:05;;;;;;;23.17;7.90;;;-3.20;99.90;;;;;;5033035;28;20162;-69
2022/12/18 09:35:30;;;;;;;16.87;7.10;;;-3.10;99.90;;;;;;5031937;28;20140;-68
2022/12/18 09:37:56;;;;;;;20.30;7.83;;;-3.00;99.90;;;;;;5039789;28;20067;-68
2022/12/18 09:40:25;;;;;;;19.93;7.70;;;-2.90;99.90;;;;;;5038212;28;20037;-68
2022/12/18 09:42:57;;;;;;;18.58;8.02;;;-2.90;99.90;;;;;;5042921;28;20463;-68
2022/12/18 09:45:25;;;;;;;17.85;7.97;;;-2.80;99.90;;;;;;5042712;28;20056;-69
2022/12/18 09:47:52;;;;;;;18.50;8.75;;;-2.80;99.90;;;;;;5041043;28;20502;-69
2022/12/18 09:50:29;;;;;;;21.52;7.25;;;-2.80;99.90;;;;;;5036343;28;20124;-68
2022/12/18 09:53:00;;;;;;;18.75;7.75;;;-2.70;99.90;;;;;;5004986;28;20041;-68
2022/12/18 09:55:37;;;;;;;19.35;8.65;;;-2.70;99.90;;;;;;5040567;28;20156;-68
2022/12/18 09:58:14;;;;;;;17.88;7.50;;;-2.60;99.90;;;;;;5043566;28;20048;-68
2022/12/18 10:00:43;;;;;;;20.23;8.45;;;-2.50;99.90;;;;;;5039934;28;20163;-68
2022/12/18 10:03:12;;;;;;;20.20;7.45;;;-2.50;99.90;;;;;;5036405;28;20053;-68
2022/12/18 10:05:56;;;;;;;19.52;7.20;;;-2.50;99.90;;;;;;5046449;28;20103;-68
2022/12/18 10:08:43;;;;;;;17.55;6.80;;;-2.50;99.90;;;;;;5042522;28;20044;-68
2022/12/18 10:11:39;;;;;;;14.88;7.20;;;-2.50;99.90;;;;;;5037461;28;20196;-68
2022/12/18 10:14:34;;;;;;;16.67;6.97;;;-2.40;99.90;;;;;;5040062;28;20049;-69
2022/12/18 10:17:18;;;;;;;20.20;7.10;;;-2.40;99.90;;;;;;5040129;28;20506;-68
2022/12/18 10:19:50;;;;;;;18.75;6.93;;;-2.50;99.90;;;;;;5041998;28;20522;-69
2022/12/18 10:22:34;;;;;;;18.15;7.13;;;-2.40;99.90;;;;;;5045997;28;20047;-70
2022/12/18 10:25:03;;;;;;;13.38;7.13;;;-2.40;99.90;;;;;;5040548;28;20414;-69
2022/12/18 10:27:30;;;;;;;13.98;6.43;;;-2.40;99.90;;;;;;5029584;28;20388;-69
2022/12/18 10:29:56;;;;;;;15.02;6.85;;;-2.40;99.90;;;;;;5037307;28;20048;-69
2022/12/18 10:32:28;;;;;;;14.77;6.93;;;-2.30;99.90;;;;;;5041299;28;20301;-69
2022/12/18 10:34:56;;;;;;;15.93;6.50;;;-2.30;99.90;;;;;;5041938;28;20052;-70
2022/12/18 10:37:29;;;;;;;16.58;7.10;;;-2.30;99.90;;;;;;5044726;28;20176;-69
2022/12/18 10:40:15;;;;;;;16.45;7.13;;;-2.30;99.90;;;;;;5039005;28;20049;-70
2022/12/18 10:42:43;;;;;;;16.02;7.07;;;-2.20;99.90;;;;;;5041103;28;20068;-70
2022/12/18 10:45:15;;;;;;;19.40;7.95;;;-2.20;99.90;;;;;;5042031;28;20102;-70
2022/12/18 10:47:48;;;;;;;15.57;6.68;;;-2.20;99.90;;;;;;5036602;28;20064;-69
2022/12/18 10:50:25;;;;;;;16.48;6.95;;;-2.20;99.90;;;;;;5040215;28;20045;-70
2022/12/18 10:52:59;;;;;;;14.65;6.88;;;-2.10;99.90;;;;;;5041453;28;20040;-70
2022/12/18 10:55:32;;;;;;;16.75;7.55;;;-2.10;99.90;;;;;;5047559;28;20056;-70
2022/12/18 10:58:16;;;;;;;15.55;7.60;;;-2.10;99.90;;;;;;5042716;28;20125;-70
2022/12/18 11:00:42;;;;;;;16.52;7.38;;;-2.00;99.90;;;;;;5040715;28;20048;-70
2022/12/18 11:03:36;;;;;;;12.77;6.20;;;-2.00;99.90;;;;;;5043286;28;20545;-70
2022/12/18 11:06:17;;;;;;;17.15;6.32;;;-1.90;99.90;;;;;;5041854;28;20060;-70
2022/12/18 11:08:57;;;;;;;12.45;6.13;;;-1.90;99.90;;;;;;5041851;28;20044;-70
2022/12/18 11:12:03;;;;;;;16.40;6.70;;;-1.90;99.90;;;;;;5067979;22;20512;-87
2022/12/18 11:15:40;;;;;;;13.60;6.05;;;-1.80;99.90;;;;;;5057576;28;20055;-87
2022/12/18 11:18:17;;;;;;;17.35;7.22;;;-1.80;99.90;;;;;;5029354;28;20063;-87
2022/12/18 11:20:54;;;;;;;14.60;5.88;;;-1.80;99.90;;;;;;5031175;28;20052;-87
2022/12/18 11:23:24;;;;;;;11.40;5.43;;;-1.70;99.90;;;;;;5039593;28;20431;-87
2022/12/18 11:25:56;;;;;;;11.10;5.60;;;-1.70;99.90;;;;;;5053175;28;20037;-87
2022/12/18 11:28:31;;;;;;;10.70;5.43;;;-1.70;99.90;;;;;;5020934;28;20175;-87
2022/12/18 11:31:18;;;;;;;11.02;5.50;;;-1.70;99.90;;;;;;5033378;28;20135;-87
2022/12/18 11:33:55;;;;;;;16.08;6.40;;;-1.60;99.90;;;;;;5050480;28;20059;-87
2022/12/18 11:36:22;;;;;;;10.75;4.97;;;-1.60;99.90;;;;;;5049417;28;20041;-87
2022/12/18 11:38:51;;;;;;;10.63;5.97;;;-1.60;99.90;;;;;;5048096;28;20553;-87
2022/12/18 11:44:54;;;;;;;9.02;4.78;;;-1.50;99.90;;;;;;5054858;28;20592;-87
2022/12/18 11:47:38;;;;;;;14.75;5.55;;;-1.50;99.90;;;;;;5052679;28;20043;-87
2022/12/18 11:50:46;;;;;;;10.43;5.30;;;-1.40;99.90;;;;;;5033304;28;20123;-87
2022/12/18 11:53:14;;;;;;;14.32;6.28;;;-1.40;99.90;;;;;;4988124;28;20061;-87
2022/12/18 11:55:54;;;;;;;10.68;4.93;;;-1.40;99.90;;;;;;5025034;28;20071;-87
2022/12/18 11:58:34;;;;;;;11.68;4.32;;;-1.40;99.90;;;;;;5034213;28;20032;-87
2022/12/18 12:01:34;;;;;;;13.13;5.40;;;-1.30;99.90;;;;;;5022992;28;20542;-87
2022/12/18 12:04:18;;;;;;;11.05;4.85;;;-1.30;99.90;;;;;;5035296;28;20052;-87
2022/12/18 12:06:59;;;;;;;10.45;4.20;;;-1.30;99.90;;;;;;5023316;28;20140;-87
2022/12/18 12:09:48;;;;;;;13.05;5.32;;;-1.30;99.90;;;;;;5033916;28;20049;-87
2022/12/18 12:12:45;;;;;;;7.22;4.32;;;-1.20;99.90;;;;;;5042557;28;20072;-87
2022/12/18 12:15:46;;;;;;;9.77;4.13;;;-1.20;99.90;;;;;;5019768;28;20045;-87
2022/12/18 12:18:24;;;;;;;9.55;4.68;;;-1.20;99.90;;;;;;5038348;28;20473;-87
2022/12/18 12:21:04;;;;;;;10.30;4.13;;;-1.20;99.90;;;;;;5038190;28;20044;-87
2022/12/18 12:23:42;;;;;;;10.88;4.80;;;-1.20;99.90;;;;;;5036978;28;20455;-87
2022/12/18 12:26:30;;;;;;;10.00;4.80;;;-1.10;99.90;;;;;;5017876;28;20048;-87
2022/12/18 12:29:43;;;;;;;8.50;3.85;;;-1.10;99.90;;;;;;5022052;28;20450;-87
2022/12/18 12:32:14;;;;;;;8.00;4.00;;;-1.10;99.90;;;;;;5000575;28;20052;-87
2022/12/18 12:35:26;;;;;;;8.60;4.07;;;-1.00;99.90;;;;;;5040861;28;20398;-87
2022/12/18 12:38:15;;;;;;;9.65;4.00;;;-1.00;99.90;;;;;;5049798;28;20051;-87
2022/12/18 12:40:57;;;;;;;5.97;3.22;;;-0.90;99.90;;;;;;5025826;28;20153;-87
2022/12/18 12:43:43;;;;;;;8.35;3.30;;;-0.90;99.90;;;;;;5027640;28;22604;-87
2022/12/18 12:46:11;;;;;;;8.45;3.55;;;-0.90;99.90;;;;;;5042701;28;20037;-87
2022/12/18 12:48:39;;;;;;;7.85;3.88;;;-0.90;99.90;;;;;;5052292;28;20025;-88
2022/12/18 12:51:18;;;;;;;8.88;3.90;;;-0.80;99.90;;;;;;5026434;28;20150;-88
2022/12/18 12:53:45;;;;;;;8.30;3.35;;;-0.80;99.90;;;;;;5038203;28;20048;-87
2022/12/18 12:56:14;;;;;;;7.97;3.60;;;-0.80;99.90;;;;;;5025959;28;20490;-88
2022/12/18 12:59:17;;;;;;;6.57;3.50;;;-0.70;99.90;;;;;;5028445;28;20138;-88
2022/12/18 13:02:10;;;;;;;8.95;3.38;;;-0.70;99.90;;;;;;5042709;28;20477;-87